sensor_id;sensor_type;location;lat;lon;timestamp;temperature;humidity
45983;DHT22;31711;47.158;7.346;2023-05-07T00:00:22;13.70;99.90
45983;DHT22;31711;47.158;7.346;2023-05-07T00:02:48;13.60;99.90
45983;DHT22;31711;47.158;7.346;2023-05-07T00:05:14;13.60;99.90
45983;DHT22;31711;47.158;7.346;2023-05-07T00:07:40;13.60;99.90
45983;DHT22;31711;47.158;7.346;2023-05-07T00:10:07;13.50;99.90
45983;DHT22;31711;47.158;7.346;2023-05-07T00:12:33;13.40;99.90
45983;DHT22;31711;47.158;7.346;2023-05-07T00:15:01;13.40;99.90
45983;DHT22;31711;47.158;7.346;2023-05-07T00:17:27;13.40;99.90
45983;DHT22;31711;47.158;7.346;2023-05-07T00:19:53;13.40;99.90
45983;DHT22;31711;47.158;7.346;2023-05-07T00:22:19;13.30;99.90
45983;DHT22;31711;47.158;7.346;2023-05-07T00:24:45;13.30;99.90
45983;DHT22;31711;47.158;7.346;2023-05-07T00:27:11;13.30;99.90
45983;DHT22;31711;47.158;7.346;2023-05-07T00:29:37;13.30;99.90
45983;DHT22;31711;47.158;7.346;2023-05-07T00:32:03;13.30;99.90
45983;DHT22;31711;47.158;7.346;2023-05-07T00:34:29;13.20;99.90
45983;DHT22;31711;47.158;7.346;2023-05-07T00:36:55;13.20;99.90
45983;DHT22;31711;47.158;7.346;2023-05-07T00:39:21;13.30;99.90
45983;DHT22;31711;47.158;7.346;2023-05-07T00:41:47;13.20;99.90
45983;DHT22;31711;47.158;7.346;2023-05-07T00:44:13;13.20;99.90
45983;DHT22;31711;47.158;7.346;2023-05-07T00:46:40;13.10;99.90
45983;DHT22;31711;47.158;7.346;2023-05-07T00:49:06;13.20;99.90
45983;DHT22;31711;47.158;7.346;2023-05-07T00:51:33;13.20;99.90
45983;DHT22;31711;47.158;7.346;2023-05-07T00:54:00;13.10;99.90
45983;DHT22;31711;47.158;7.346;2023-05-07T00:56:27;13.20;99.90
45983;DHT22;31711;47.158;7.346;2023-05-07T00:58:54;13.10;99.90
45983;DHT22;31711;47.158;7.346;2023-05-07T01:01:20;13.10;99.90
45983;DHT22;31711;47.158;7.346;2023-05-07T01:03:46;13.20;99.90
45983;DHT22;31711;47.158;7.346;2023-05-07T01:06:13;13.10;99.90
45983;DHT22;31711;47.158;7.346;2023-05-07T01:08:42;13.00;99.90
45983;DHT22;31711;47.158;7.346;2023-05-07T01:11:09;13.00;99.90
45983;DHT22;31711;47.158;7.346;2023-05-07T01:13:36;13.00;99.90
45983;DHT22;31711;47.158;7.346;2023-05-07T01:16:03;12.90;99.90
45983;DHT22;31711;47.158;7.346;2023-05-07T01:18:29;12.90;99.90
45983;DHT22;31711;47.158;7.346;2023-05-07T01:20:58;12.80;99.90
45983;DHT22;31711;47.158;7.346;2023-05-07T01:23:26;12.80;99.90
45983;DHT22;31711;47.158;7.346;2023-05-07T01:25:54;12.70;99.90
45983;DHT22;31711;47.158;7.346;2023-05-07T01:28:20;12.70;99.90
45983;DHT22;31711;47.158;7.346;2023-05-07T01:31:02;12.80;99.90
45983;DHT22;31711;47.158;7.346;2023-05-07T01:33:31;12.70;99.90
45983;DHT22;31711;47.158;7.346;2023-05-07T01:35:59;12.70;99.90
45983;DHT22;31711;47.158;7.346;2023-05-07T01:38:28;12.70;99.90
45983;DHT22;31711;47.158;7.346;2023-05-07T01:40:55;12.70;99.90
45983;DHT22;31711;47.158;7.346;2023-05-07T01:43:21;12.70;99.90
45983;DHT22;31711;47.158;7.346;2023-05-07T01:45:48;12.60;99.90
45983;DHT22;31711;47.158;7.346;2023-05-07T01:48:15;12.60;99.90
45983;DHT22;31711;47.158;7.346;2023-05-07T01:50:44;12.60;99.90
45983;DHT22;31711;47.158;7.346;2023-05-07T01:53:10;12.60;99.90
45983;DHT22;31711;47.158;7.346;2023-05-07T01:55:36;12.50;99.90
45983;DHT22;31711;47.158;7.346;2023-05-07T01:58:05;12.50;99.90
45983;DHT22;31711;47.158;7.346;2023-05-07T02:00:31;12.50;99.90
45983;DHT22;31711;47.158;7.346;2023-05-07T02:02:57;12.40;99.90
45983;DHT22;31711;47.158;7.346;2023-05-07T02:05:24;12.40;99.90
45983;DHT22;31711;47.158;7.346;2023-05-07T02:07:49;12.40;99.90
45983;DHT22;31711;47.158;7.346;2023-05-07T02:10:15;12.30;99.90
45983;DHT22;31711;47.158;7.346;2023-05-07T02:12:41;12.20;99.90
45983;DHT22;31711;47.158;7.346;2023-05-07T02:15:08;12.20;99.90
45983;DHT22;31711;47.158;7.346;2023-05-07T02:17:34;12.20;99.90
45983;DHT22;31711;47.158;7.346;2023-05-07T02:20:02;12.20;99.90
45983;DHT22;31711;47.158;7.346;2023-05-07T02:22:29;12.10;99.90
45983;DHT22;31711;47.158;7.346;2023-05-07T02:24:55;12.10;99.90
45983;DHT22;31711;47.158;7.346;2023-05-07T02:27:21;12.10;99.90
45983;DHT22;31711;47.158;7.346;2023-05-07T02:29:47;12.10;99.90
45983;DHT22;31711;47.158;7.346;2023-05-07T02:32:13;12.10;99.90
45983;DHT22;31711;47.158;7.346;2023-05-07T02:34:39;12.00;99.90
45983;DHT22;31711;47.158;7.346;2023-05-07T02:37:05;12.00;99.90
45983;DHT22;31711;47.158;7.346;2023-05-07T02:39:31;12.00;99.90
45983;DHT22;31711;47.158;7.346;2023-05-07T02:41:57;12.00;99.90
45983;DHT22;31711;47.158;7.346;2023-05-07T02:44:23;12.00;99.90
45983;DHT22;31711;47.158;7.346;2023-05-07T02:46:49;11.90;99.90
45983;DHT22;31711;47.158;7.346;2023-05-07T02:49:15;12.00;99.90
45983;DHT22;31711;47.158;7.346;2023-05-07T02:51:41;11.90;99.90
45983;DHT22;31711;47.158;7.346;2023-05-07T02:54:07;11.90;99.90
45983;DHT22;31711;47.158;7.346;2023-05-07T02:56:33;11.90;99.90
45983;DHT22;31711;47.158;7.346;2023-05-07T02:58:59;11.90;99.90
45983;DHT22;31711;47.158;7.346;2023-05-07T03:01:25;11.90;99.90
45983;DHT22;31711;47.158;7.346;2023-05-07T03:03:51;11.80;99.90
45983;DHT22;31711;47.158;7.346;2023-05-07T03:06:17;11.90;99.90
45983;DHT22;31711;47.158;7.346;2023-05-07T03:08:43;11.80;99.90
45983;DHT22;31711;47.158;7.346;2023-05-07T03:11:09;11.80;99.90
45983;DHT22;31711;47.158;7.346;2023-05-07T03:13:35;11.80;99.90
45983;DHT22;31711;47.158;7.346;2023-05-07T03:16:01;11.80;99.90
45983;DHT22;31711;47.158;7.346;2023-05-07T03:18:29;11.70;99.90
45983;DHT22;31711;47.158;7.346;2023-05-07T03:20:58;11.70;99.90
45983;DHT22;31711;47.158;7.346;2023-05-07T03:23:24;11.70;99.90
45983;DHT22;31711;47.158;7.346;2023-05-07T03:25:50;11.70;99.90
45983;DHT22;31711;47.158;7.346;2023-05-07T03:28:15;11.70;99.90
45983;DHT22;31711;47.158;7.346;2023-05-07T03:30:41;11.80;99.90
45983;DHT22;31711;47.158;7.346;2023-05-07T03:33:07;11.80;99.90
45983;DHT22;31711;47.158;7.346;2023-05-07T03:35:33;11.80;99.90
45983;DHT22;31711;47.158;7.346;2023-05-07T03:37:59;11.80;99.90
45983;DHT22;31711;47.158;7.346;2023-05-07T03:40:25;11.90;99.90
45983;DHT22;31711;47.158;7.346;2023-05-07T03:42:51;11.90;99.90
45983;DHT22;31711;47.158;7.346;2023-05-07T03:45:17;11.90;99.90
45983;DHT22;31711;47.158;7.346;2023-05-07T03:47:43;11.90;99.90
45983;DHT22;31711;47.158;7.346;2023-05-07T03:50:09;11.90;99.90
45983;DHT22;31711;47.158;7.346;2023-05-07T03:52:36;11.90;99.90
45983;DHT22;31711;47.158;7.346;2023-05-07T03:55:02;11.90;99.90
45983;DHT22;31711;47.158;7.346;2023-05-07T03:57:28;11.90;99.90
45983;DHT22;31711;47.158;7.346;2023-05-07T03:59:54;11.90;99.90
45983;DHT22;31711;47.158;7.346;2023-05-07T04:02:20;11.80;99.90
45983;DHT22;31711;47.158;7.346;2023-05-07T04:04:47;11.70;99.90
45983;DHT22;31711;47.158;7.346;2023-05-07T04:07:13;11.60;99.90
45983;DHT22;31711;47.158;7.346;2023-05-07T04:09:40;11.60;99.90
45983;DHT22;31711;47.158;7.346;2023-05-07T04:12:06;11.60;99.90
45983;DHT22;31711;47.158;7.346;2023-05-07T04:14:32;11.60;99.90
45983;DHT22;31711;47.158;7.346;2023-05-07T04:16:59;11.70;99.90
45983;DHT22;31711;47.158;7.346;2023-05-07T04:19:25;11.70;99.90
45983;DHT22;31711;47.158;7.346;2023-05-07T04:21:51;11.70;99.90
45983;DHT22;31711;47.158;7.346;2023-05-07T04:24:17;11.70;99.90
45983;DHT22;31711;47.158;7.346;2023-05-07T04:26:43;11.80;99.90
45983;DHT22;31711;47.158;7.346;2023-05-07T04:29:09;11.80;99.90
45983;DHT22;31711;47.158;7.346;2023-05-07T04:31:35;11.80;99.90
45983;DHT22;31711;47.158;7.346;2023-05-07T04:34:01;11.80;99.90
45983;DHT22;31711;47.158;7.346;2023-05-07T04:36:27;11.90;99.90
45983;DHT22;31711;47.158;7.346;2023-05-07T04:38:53;11.90;99.90
45983;DHT22;31711;47.158;7.346;2023-05-07T04:41:19;11.90;99.90
45983;DHT22;31711;47.158;7.346;2023-05-07T04:43:46;12.00;99.90
45983;DHT22;31711;47.158;7.346;2023-05-07T04:46:12;12.00;99.90
45983;DHT22;31711;47.158;7.346;2023-05-07T04:48:38;12.00;99.90
45983;DHT22;31711;47.158;7.346;2023-05-07T04:51:04;12.10;99.90
45983;DHT22;31711;47.158;7.346;2023-05-07T04:53:30;12.10;99.90
45983;DHT22;31711;47.158;7.346;2023-05-07T04:55:56;12.20;99.90
45983;DHT22;31711;47.158;7.346;2023-05-07T04:58:23;12.20;99.90
45983;DHT22;31711;47.158;7.346;2023-05-07T05:00:49;12.20;99.90
45983;DHT22;31711;47.158;7.346;2023-05-07T05:03:15;12.20;99.90
45983;DHT22;31711;47.158;7.346;2023-05-07T05:05:41;12.20;99.90
45983;DHT22;31711;47.158;7.346;2023-05-07T05:08:07;12.20;99.90
45983;DHT22;31711;47.158;7.346;2023-05-07T05:10:33;12.30;99.90
45983;DHT22;31711;47.158;7.346;2023-05-07T05:12:59;12.40;99.90
45983;DHT22;31711;47.158;7.346;2023-05-07T05:15:25;12.50;99.90
45983;DHT22;31711;47.158;7.346;2023-05-07T05:17:51;12.60;99.90
45983;DHT22;31711;47.158;7.346;2023-05-07T05:20:17;12.80;99.90
45983;DHT22;31711;47.158;7.346;2023-05-07T05:22:43;12.90;99.90
45983;DHT22;31711;47.158;7.346;2023-05-07T05:25:09;13.00;99.90
45983;DHT22;31711;47.158;7.346;2023-05-07T05:27:35;13.10;99.90
45983;DHT22;31711;47.158;7.346;2023-05-07T05:30:01;13.10;99.90
45983;DHT22;31711;47.158;7.346;2023-05-07T05:32:27;13.30;99.90
45983;DHT22;31711;47.158;7.346;2023-05-07T05:34:53;13.40;99.90
45983;DHT22;31711;47.158;7.346;2023-05-07T05:37:19;13.50;99.90
45983;DHT22;31711;47.158;7.346;2023-05-07T05:39:45;13.60;99.90
45983;DHT22;31711;47.158;7.346;2023-05-07T05:42:11;13.60;99.90
45983;DHT22;31711;47.158;7.346;2023-05-07T05:44:37;13.80;99.90
45983;DHT22;31711;47.158;7.346;2023-05-07T05:47:03;13.80;99.90
45983;DHT22;31711;47.158;7.346;2023-05-07T05:49:29;13.90;99.90
45983;DHT22;31711;47.158;7.346;2023-05-07T05:51:55;14.00;99.90
45983;DHT22;31711;47.158;7.346;2023-05-07T05:54:21;14.10;99.90
45983;DHT22;31711;47.158;7.346;2023-05-07T05:56:47;14.20;99.90
45983;DHT22;31711;47.158;7.346;2023-05-07T05:59:14;14.30;99.90
45983;DHT22;31711;47.158;7.346;2023-05-07T06:01:40;14.40;99.90
45983;DHT22;31711;47.158;7.346;2023-05-07T06:04:06;14.60;99.90
45983;DHT22;31711;47.158;7.346;2023-05-07T06:06:32;14.70;99.90
45983;DHT22;31711;47.158;7.346;2023-05-07T06:08:58;14.90;99.90
45983;DHT22;31711;47.158;7.346;2023-05-07T06:11:24;15.10;99.90
45983;DHT22;31711;47.158;7.346;2023-05-07T06:13:51;15.20;99.90
45983;DHT22;31711;47.158;7.346;2023-05-07T06:16:16;15.20;99.90
45983;DHT22;31711;47.158;7.346;2023-05-07T06:18:42;15.20;99.90
45983;DHT22;31711;47.158;7.346;2023-05-07T06:21:09;15.30;99.90
45983;DHT22;31711;47.158;7.346;2023-05-07T06:23:35;15.30;99.90
45983;DHT22;31711;47.158;7.346;2023-05-07T06:26:01;15.30;99.90
45983;DHT22;31711;47.158;7.346;2023-05-07T06:28:27;15.40;99.90
45983;DHT22;31711;47.158;7.346;2023-05-07T06:30:53;15.60;99.90
45983;DHT22;31711;47.158;7.346;2023-05-07T06:33:19;15.60;99.90
45983;DHT22;31711;47.158;7.346;2023-05-07T06:35:45;15.50;99.90
45983;DHT22;31711;47.158;7.346;2023-05-07T06:38:11;15.40;99.90
45983;DHT22;31711;47.158;7.346;2023-05-07T06:40:38;15.40;99.90
45983;DHT22;31711;47.158;7.346;2023-05-07T06:43:04;15.40;99.90
45983;DHT22;31711;47.158;7.346;2023-05-07T06:45:29;15.50;99.90
45983;DHT22;31711;47.158;7.346;2023-05-07T06:47:55;15.70;99.90
45983;DHT22;31711;47.158;7.346;2023-05-07T06:50:21;15.60;99.90
45983;DHT22;31711;47.158;7.346;2023-05-07T06:52:47;15.70;99.90
45983;DHT22;31711;47.158;7.346;2023-05-07T06:55:13;15.80;99.90
45983;DHT22;31711;47.158;7.346;2023-05-07T06:57:39;16.10;99.90
45983;DHT22;31711;47.158;7.346;2023-05-07T07:00:06;16.20;99.90
45983;DHT22;31711;47.158;7.346;2023-05-07T07:02:34;16.30;99.90
45983;DHT22;31711;47.158;7.346;2023-05-07T07:05:00;16.20;99.90
45983;DHT22;31711;47.158;7.346;2023-05-07T07:07:26;16.10;99.90
45983;DHT22;31711;47.158;7.346;2023-05-07T07:09:52;16.20;99.90
45983;DHT22;31711;47.158;7.346;2023-05-07T07:12:18;15.90;99.90
45983;DHT22;31711;47.158;7.346;2023-05-07T07:14:44;16.00;99.90
45983;DHT22;31711;47.158;7.346;2023-05-07T07:17:10;16.00;99.90
45983;DHT22;31711;47.158;7.346;2023-05-07T07:19:36;16.00;99.90
45983;DHT22;31711;47.158;7.346;2023-05-07T07:22:03;16.20;99.90
45983;DHT22;31711;47.158;7.346;2023-05-07T07:24:29;16.40;99.90
45983;DHT22;31711;47.158;7.346;2023-05-07T07:26:55;16.50;99.90
45983;DHT22;31711;47.158;7.346;2023-05-07T07:29:21;16.70;99.90
45983;DHT22;31711;47.158;7.346;2023-05-07T07:31:48;16.70;99.90
45983;DHT22;31711;47.158;7.346;2023-05-07T07:34:15;16.80;99.90
45983;DHT22;31711;47.158;7.346;2023-05-07T07:36:41;16.90;99.90
45983;DHT22;31711;47.158;7.346;2023-05-07T07:39:07;17.00;99.90
45983;DHT22;31711;47.158;7.346;2023-05-07T07:41:33;17.10;99.90
45983;DHT22;31711;47.158;7.346;2023-05-07T07:43:59;17.30;99.90
45983;DHT22;31711;47.158;7.346;2023-05-07T07:46:25;17.50;99.90
45983;DHT22;31711;47.158;7.346;2023-05-07T07:48:52;17.30;99.90
45983;DHT22;31711;47.158;7.346;2023-05-07T07:51:18;17.30;99.90
45983;DHT22;31711;47.158;7.346;2023-05-07T07:53:44;17.70;99.90
45983;DHT22;31711;47.158;7.346;2023-05-07T07:56:10;17.80;99.90
45983;DHT22;31711;47.158;7.346;2023-05-07T07:58:35;18.10;99.90
45983;DHT22;31711;47.158;7.346;2023-05-07T08:01:03;18.20;99.90
45983;DHT22;31711;47.158;7.346;2023-05-07T08:03:30;18.10;99.90
45983;DHT22;31711;47.158;7.346;2023-05-07T08:05:58;17.80;99.90
45983;DHT22;31711;47.158;7.346;2023-05-07T08:08:24;17.80;99.90
45983;DHT22;31711;47.158;7.346;2023-05-07T08:10:50;18.10;99.90
45983;DHT22;31711;47.158;7.346;2023-05-07T08:13:17;18.30;99.90
45983;DHT22;31711;47.158;7.346;2023-05-07T08:15:43;18.50;99.90
45983;DHT22;31711;47.158;7.346;2023-05-07T08:18:09;18.50;99.90
45983;DHT22;31711;47.158;7.346;2023-05-07T08:20:35;18.70;99.90
45983;DHT22;31711;47.158;7.346;2023-05-07T08:23:05;18.90;99.90
45983;DHT22;31711;47.158;7.346;2023-05-07T08:25:36;19.10;99.90
45983;DHT22;31711;47.158;7.346;2023-05-07T08:28:03;18.90;99.90
45983;DHT22;31711;47.158;7.346;2023-05-07T08:30:29;18.80;99.90
45983;DHT22;31711;47.158;7.346;2023-05-07T08:32:55;18.60;99.90
45983;DHT22;31711;47.158;7.346;2023-05-07T08:35:21;18.60;99.90
45983;DHT22;31711;47.158;7.346;2023-05-07T08:37:47;18.70;99.90
45983;DHT22;31711;47.158;7.346;2023-05-07T08:40:13;18.60;99.90
45983;DHT22;31711;47.158;7.346;2023-05-07T08:42:40;18.80;99.90
45983;DHT22;31711;47.158;7.346;2023-05-07T08:45:10;19.00;99.90
45983;DHT22;31711;47.158;7.346;2023-05-07T08:47:44;19.20;99.90
45983;DHT22;31711;47.158;7.346;2023-05-07T08:50:13;19.10;99.90
45983;DHT22;31711;47.158;7.346;2023-05-07T08:52:40;19.10;99.90
45983;DHT22;31711;47.158;7.346;2023-05-07T08:55:07;19.30;99.90
45983;DHT22;31711;47.158;7.346;2023-05-07T08:57:34;19.30;99.90
45983;DHT22;31711;47.158;7.346;2023-05-07T09:00:00;19.40;99.90
45983;DHT22;31711;47.158;7.346;2023-05-07T09:02:26;19.30;99.90
45983;DHT22;31711;47.158;7.346;2023-05-07T09:04:52;19.20;99.90
45983;DHT22;31711;47.158;7.346;2023-05-07T09:07:20;19.50;99.90
45983;DHT22;31711;47.158;7.346;2023-05-07T09:09:46;19.40;99.90
45983;DHT22;31711;47.158;7.346;2023-05-07T09:12:12;19.50;99.90
45983;DHT22;31711;47.158;7.346;2023-05-07T09:14:38;19.70;99.90
45983;DHT22;31711;47.158;7.346;2023-05-07T09:17:05;19.60;99.90
45983;DHT22;31711;47.158;7.346;2023-05-07T09:19:31;19.90;99.90
45983;DHT22;31711;47.158;7.346;2023-05-07T09:22:05;20.10;99.90
45983;DHT22;31711;47.158;7.346;2023-05-07T09:24:32;20.00;99.90
45983;DHT22;31711;47.158;7.346;2023-05-07T09:27:04;20.30;99.90
45983;DHT22;31711;47.158;7.346;2023-05-07T09:29:30;20.50;99.90
45983;DHT22;31711;47.158;7.346;2023-05-07T09:32:05;20.50;99.90
45983;DHT22;31711;47.158;7.346;2023-05-07T09:34:31;20.70;99.90
45983;DHT22;31711;47.158;7.346;2023-05-07T09:37:00;20.60;99.90
45983;DHT22;31711;47.158;7.346;2023-05-07T09:39:26;20.30;99.90
45983;DHT22;31711;47.158;7.346;2023-05-07T09:41:52;20.30;99.90
45983;DHT22;31711;47.158;7.346;2023-05-07T09:44:20;20.40;99.90
45983;DHT22;31711;47.158;7.346;2023-05-07T09:46:53;20.70;99.90
45983;DHT22;31711;47.158;7.346;2023-05-07T09:49:22;20.70;99.90
45983;DHT22;31711;47.158;7.346;2023-05-07T09:51:52;21.00;99.90
45983;DHT22;31711;47.158;7.346;2023-05-07T09:54:18;21.10;99.90
45983;DHT22;31711;47.158;7.346;2023-05-07T09:56:45;21.30;99.90
45983;DHT22;31711;47.158;7.346;2023-05-07T09:59:16;20.80;99.90
45983;DHT22;31711;47.158;7.346;2023-05-07T10:01:43;20.80;99.90
45983;DHT22;31711;47.158;7.346;2023-05-07T10:04:10;21.00;99.90
45983;DHT22;31711;47.158;7.346;2023-05-07T10:06:37;21.40;99.90
45983;DHT22;31711;47.158;7.346;2023-05-07T10:09:04;21.70;99.90
45983;DHT22;31711;47.158;7.346;2023-05-07T10:11:34;21.70;99.90
45983;DHT22;31711;47.158;7.346;2023-05-07T10:14:04;21.80;99.90
45983;DHT22;31711;47.158;7.346;2023-05-07T10:16:34;21.80;99.90
45983;DHT22;31711;47.158;7.346;2023-05-07T10:19:08;21.90;99.90
45983;DHT22;31711;47.158;7.346;2023-05-07T10:21:37;22.00;99.90
45983;DHT22;31711;47.158;7.346;2023-05-07T10:24:34;21.60;99.90
45983;DHT22;31711;47.158;7.346;2023-05-07T10:27:06;21.60;99.90
45983;DHT22;31711;47.158;7.346;2023-05-07T10:29:50;21.80;99.90
45983;DHT22;31711;47.158;7.346;2023-05-07T10:32:40;22.00;99.90
45983;DHT22;31711;47.158;7.346;2023-05-07T10:35:09;22.40;99.90
45983;DHT22;31711;47.158;7.346;2023-05-07T10:37:36;22.40;99.90
45983;DHT22;31711;47.158;7.346;2023-05-07T10:40:02;22.30;99.90
45983;DHT22;31711;47.158;7.346;2023-05-07T10:42:29;22.60;99.90
45983;DHT22;31711;47.158;7.346;2023-05-07T10:44:54;22.50;99.90
45983;DHT22;31711;47.158;7.346;2023-05-07T10:47:20;23.10;99.90
45983;DHT22;31711;47.158;7.346;2023-05-07T10:52:23;23.70;99.90
45983;DHT22;31711;47.158;7.346;2023-05-07T10:57:50;23.50;99.90
45983;DHT22;31711;47.158;7.346;2023-05-07T11:05:28;23.00;99.90
45983;DHT22;31711;47.158;7.346;2023-05-07T11:07:59;23.00;99.90
45983;DHT22;31711;47.158;7.346;2023-05-07T11:13:14;22.50;99.90
45983;DHT22;31711;47.158;7.346;2023-05-07T11:15:42;22.50;99.90
45983;DHT22;31711;47.158;7.346;2023-05-07T11:18:11;22.10;99.90
45983;DHT22;31711;47.158;7.346;2023-05-07T11:20:48;22.00;99.90
45983;DHT22;31711;47.158;7.346;2023-05-07T11:26:07;21.80;99.90
45983;DHT22;31711;47.158;7.346;2023-05-07T11:28:40;22.00;99.90
45983;DHT22;31711;47.158;7.346;2023-05-07T11:31:07;22.10;99.90
45983;DHT22;31711;47.158;7.346;2023-05-07T11:33:34;22.10;99.90
45983;DHT22;31711;47.158;7.346;2023-05-07T11:36:03;22.10;99.90
45983;DHT22;31711;47.158;7.346;2023-05-07T11:38:30;21.60;99.90
45983;DHT22;31711;47.158;7.346;2023-05-07T11:40:59;21.50;99.90
45983;DHT22;31711;47.158;7.346;2023-05-07T11:43:29;21.50;99.90
45983;DHT22;31711;47.158;7.346;2023-05-07T11:46:08;22.20;99.90
45983;DHT22;31711;47.158;7.346;2023-05-07T11:48:34;21.60;99.90
45983;DHT22;31711;47.158;7.346;2023-05-07T11:51:02;21.30;99.90
45983;DHT22;31711;47.158;7.346;2023-05-07T11:53:42;21.40;99.90
45983;DHT22;31711;47.158;7.346;2023-05-07T11:56:12;21.50;99.90
45983;DHT22;31711;47.158;7.346;2023-05-07T11:58:40;22.00;99.90
45983;DHT22;31711;47.158;7.346;2023-05-07T12:01:08;22.40;99.90
45983;DHT22;31711;47.158;7.346;2023-05-07T12:03:37;22.80;99.90
45983;DHT22;31711;47.158;7.346;2023-05-07T12:06:07;22.70;99.90
45983;DHT22;31711;47.158;7.346;2023-05-07T12:08:33;23.20;99.90
45983;DHT22;31711;47.158;7.346;2023-05-07T12:11:01;23.20;99.90
45983;DHT22;31711;47.158;7.346;2023-05-07T12:13:27;23.10;99.90
45983;DHT22;31711;47.158;7.346;2023-05-07T12:15:55;23.00;99.90
45983;DHT22;31711;47.158;7.346;2023-05-07T12:18:22;22.50;99.90
45983;DHT22;31711;47.158;7.346;2023-05-07T12:20:49;22.80;99.90
45983;DHT22;31711;47.158;7.346;2023-05-07T12:23:16;22.80;99.90
45983;DHT22;31711;47.158;7.346;2023-05-07T12:25:43;22.80;99.90
45983;DHT22;31711;47.158;7.346;2023-05-07T12:28:19;23.10;99.90
45983;DHT22;31711;47.158;7.346;2023-05-07T12:30:47;22.70;99.90
45983;DHT22;31711;47.158;7.346;2023-05-07T12:33:24;22.60;99.90
45983;DHT22;31711;47.158;7.346;2023-05-07T12:35:50;22.50;99.90
45983;DHT22;31711;47.158;7.346;2023-05-07T12:38:18;22.10;99.90
45983;DHT22;31711;47.158;7.346;2023-05-07T12:40:49;22.10;99.90
45983;DHT22;31711;47.158;7.346;2023-05-07T12:43:17;22.30;99.90
45983;DHT22;31711;47.158;7.346;2023-05-07T12:45:44;22.30;99.30
45983;DHT22;31711;47.158;7.346;2023-05-07T12:48:10;22.10;99.60
45983;DHT22;31711;47.158;7.346;2023-05-07T12:50:37;22.10;99.90
45983;DHT22;31711;47.158;7.346;2023-05-07T12:53:04;22.10;99.90
45983;DHT22;31711;47.158;7.346;2023-05-07T12:55:43;21.80;99.90
45983;DHT22;31711;47.158;7.346;2023-05-07T12:58:15;22.10;99.90
45983;DHT22;31711;47.158;7.346;2023-05-07T13:00:41;22.00;99.90
45983;DHT22;31711;47.158;7.346;2023-05-07T13:03:09;22.20;99.90
45983;DHT22;31711;47.158;7.346;2023-05-07T13:05:35;21.90;99.90
45983;DHT22;31711;47.158;7.346;2023-05-07T13:08:01;22.10;99.90
45983;DHT22;31711;47.158;7.346;2023-05-07T13:10:27;22.20;99.90
45983;DHT22;31711;47.158;7.346;2023-05-07T13:12:54;22.20;99.20
45983;DHT22;31711;47.158;7.346;2023-05-07T13:15:21;22.30;99.90
45983;DHT22;31711;47.158;7.346;2023-05-07T13:17:47;22.10;99.90
45983;DHT22;31711;47.158;7.346;2023-05-07T13:20:13;22.30;99.60
45983;DHT22;31711;47.158;7.346;2023-05-07T13:22:39;22.10;99.80
45983;DHT22;31711;47.158;7.346;2023-05-07T13:25:06;22.30;99.90
45983;DHT22;31711;47.158;7.346;2023-05-07T13:27:32;22.30;99.70
45983;DHT22;31711;47.158;7.346;2023-05-07T13:30:01;22.30;99.90
45983;DHT22;31711;47.158;7.346;2023-05-07T13:32:27;22.50;99.90
45983;DHT22;31711;47.158;7.346;2023-05-07T13:34:53;22.50;99.70
45983;DHT22;31711;47.158;7.346;2023-05-07T13:37:19;22.10;99.90
45983;DHT22;31711;47.158;7.346;2023-05-07T13:39:45;22.20;99.90
45983;DHT22;31711;47.158;7.346;2023-05-07T13:42:11;22.00;99.90
45983;DHT22;31711;47.158;7.346;2023-05-07T13:44:37;21.80;99.90
45983;DHT22;31711;47.158;7.346;2023-05-07T13:47:03;21.50;99.90
45983;DHT22;31711;47.158;7.346;2023-05-07T13:49:29;21.40;99.90
45983;DHT22;31711;47.158;7.346;2023-05-07T13:51:55;21.50;99.90
45983;DHT22;31711;47.158;7.346;2023-05-07T13:54:21;21.40;99.90
45983;DHT22;31711;47.158;7.346;2023-05-07T13:56:47;21.20;99.90
45983;DHT22;31711;47.158;7.346;2023-05-07T13:59:13;21.10;99.90
45983;DHT22;31711;47.158;7.346;2023-05-07T14:01:40;20.90;99.90
45983;DHT22;31711;47.158;7.346;2023-05-07T14:04:06;20.80;99.90
45983;DHT22;31711;47.158;7.346;2023-05-07T14:06:33;20.60;99.90
45983;DHT22;31711;47.158;7.346;2023-05-07T14:08:59;20.40;99.90
45983;DHT22;31711;47.158;7.346;2023-05-07T14:11:25;20.10;99.90
45983;DHT22;31711;47.158;7.346;2023-05-07T14:13:51;19.80;99.90
45983;DHT22;31711;47.158;7.346;2023-05-07T14:16:17;19.80;99.90
45983;DHT22;31711;47.158;7.346;2023-05-07T14:18:43;19.60;99.90
45983;DHT22;31711;47.158;7.346;2023-05-07T14:21:09;19.40;99.90
45983;DHT22;31711;47.158;7.346;2023-05-07T14:23:35;19.30;99.90
45983;DHT22;31711;47.158;7.346;2023-05-07T14:26:01;19.40;99.90
45983;DHT22;31711;47.158;7.346;2023-05-07T14:28:27;19.20;99.90
45983;DHT22;31711;47.158;7.346;2023-05-07T14:30:53;19.30;99.90
45983;DHT22;31711;47.158;7.346;2023-05-07T14:33:19;19.30;99.90
45983;DHT22;31711;47.158;7.346;2023-05-07T14:35:45;19.10;99.90
45983;DHT22;31711;47.158;7.346;2023-05-07T14:38:14;19.00;99.90
45983;DHT22;31711;47.158;7.346;2023-05-07T14:40:41;18.80;99.90
45983;DHT22;31711;47.158;7.346;2023-05-07T14:43:07;18.70;99.90
45983;DHT22;31711;47.158;7.346;2023-05-07T14:45:33;18.70;99.90
45983;DHT22;31711;47.158;7.346;2023-05-07T14:47:59;18.70;99.90
45983;DHT22;31711;47.158;7.346;2023-05-07T14:50:25;18.50;99.90
45983;DHT22;31711;47.158;7.346;2023-05-07T14:52:51;18.40;99.90
45983;DHT22;31711;47.158;7.346;2023-05-07T14:55:17;18.50;99.90
45983;DHT22;31711;47.158;7.346;2023-05-07T14:57:43;18.50;99.90
45983;DHT22;31711;47.158;7.346;2023-05-07T15:00:09;18.40;99.90
45983;DHT22;31711;47.158;7.346;2023-05-07T15:02:36;18.40;99.90
45983;DHT22;31711;47.158;7.346;2023-05-07T15:05:03;18.30;99.90
45983;DHT22;31711;47.158;7.346;2023-05-07T15:07:29;18.30;99.90
45983;DHT22;31711;47.158;7.346;2023-05-07T15:09:55;18.30;99.90
45983;DHT22;31711;47.158;7.346;2023-05-07T15:12:21;18.40;99.90
45983;DHT22;31711;47.158;7.346;2023-05-07T15:14:47;18.40;99.90
45983;DHT22;31711;47.158;7.346;2023-05-07T15:17:13;18.40;99.90
45983;DHT22;31711;47.158;7.346;2023-05-07T15:19:40;18.40;99.90
45983;DHT22;31711;47.158;7.346;2023-05-07T15:22:06;18.50;99.90
45983;DHT22;31711;47.158;7.346;2023-05-07T15:24:32;18.40;99.90
45983;DHT22;31711;47.158;7.346;2023-05-07T15:26:58;18.40;99.90
45983;DHT22;31711;47.158;7.346;2023-05-07T15:29:24;18.30;99.90
45983;DHT22;31711;47.158;7.346;2023-05-07T15:31:50;18.40;99.90
45983;DHT22;31711;47.158;7.346;2023-05-07T15:34:17;18.40;99.90
45983;DHT22;31711;47.158;7.346;2023-05-07T15:36:43;18.20;99.90
45983;DHT22;31711;47.158;7.346;2023-05-07T15:39:09;18.30;99.90
45983;DHT22;31711;47.158;7.346;2023-05-07T15:41:36;18.20;99.90
45983;DHT22;31711;47.158;7.346;2023-05-07T15:44:03;18.20;99.90